ADDS METAR Data INFO
IDs: Format: Raw Decoded Include TAF

Data at: 0456 UTC 23 May 2017

KBYY 230435Z AUTO 02006KT 10SM SCT010 22/21 A2988 RMK AO2 T02200209
KBYY 230415Z AUTO 03005KT 10SM SCT010 22/21 A2986 RMK AO2 T02220210
KBYY 230355Z AUTO 03006KT 10SM SCT010 22/21 A2986 RMK AO2 T02250211
KBYY 230335Z AUTO 02004KT 10SM CLR 22/21 A2986 RMK AO2 T02280212
KBYY 230315Z AUTO 01007KT 10SM SCT023 22/21 A2985 RMK AO2 T02300214
KBYY 230255Z AUTO 02005KT 10SM SCT023 23/21 A2984 RMK AO2 T02320216
KBYY 230235Z AUTO 36005KT 10SM SCT024 23/21 A2984 RMK AO2 T02350219
KBYY 230215Z AUTO 36005KT 10SM SCT024 23/22 A2984 RMK AO2 T02370221
KBYY 230155Z AUTO 01004KT 10SM SCT020 23/22 A2983 RMK AO2 T02390221
KBYY 230135Z AUTO 01005KT 10SM OVC020 24/22 A2983 RMK AO2 T02430221
KBYY 230115Z AUTO 01006KT 10SM BKN020 24/22 A2983 RMK AO2 T02460222
KBYY 230055Z AUTO 01005KT 10SM SCT020 SCT028 25/22 A2983 RMK AO2 T02510226
KBYY 230035Z AUTO 01006KT 10SM BKN020 OVC028 25/22 A2983 RMK AO2 T02560227
KBYY 230015Z AUTO 02005KT 10SM SCT012 OVC018 25/22 A2983 RMK AO2 T02580229
KBYY 222355Z AUTO 01006KT 10SM SCT012 BKN018 26/23 A2983 RMK AO2 T02660233
KBYY 222335Z AUTO 30004KT 10SM SCT012 SCT020 26/22 A2984 RMK AO2 T02630229
KBYY 222315Z AUTO 28003KT 10SM BKN012 26/23 A2984 RMK AO2 T02600232
KBYY 222255Z AUTO 23005KT 10SM OVC010 26/23 A2985 RMK AO2 T02640237
KBYY 222235Z AUTO 24006KT 10SM BKN010 BKN045 OVC060 27/24 A2986 RMK AO2 T02690240
KBYY 222215Z AUTO 22005KT 10SM SCT017 BKN047 OVC110 27/23 A2986 RMK AO2 T02690238
KBYY 222155Z AUTO 23005KT 7SM SCT007 SCT019 BKN047 26/24 A2986 RMK AO2 T02620244
KBYY 222135Z AUTO 26004KT 5SM -DZ SCT017 BKN035 OVC065 26/24 A2986 RMK AO2 T02660240
KBYY 222115Z AUTO 19005KT 7SM -RA SCT023 BKN041 OVC070 27/23 A2986 RMK AO2 T02750233
KBYY 222055Z AUTO 17005KT 10SM -DZ SCT027 BKN036 BKN047 27/22 A2987 RMK AO2 T02790230
KBYY 222035Z AUTO 17006KT 10SM SCT024 SCT028 BKN110 28/22 A2987 RMK AO2 T02810230
KBYY 222015Z AUTO 16006KT 10SM SCT024 BKN030 OVC075 28/22 A2988 RMK AO2 T02850230
KBYY 221955Z AUTO 16006KT 10SM SCT028 BKN060 OVC070 28/22 A2988 RMK AO2 T02860225
KBYY 221935Z AUTO 17008KT 10SM BKN060 BKN070 28/22 A2989 RMK AO2 T02900226
KBYY 221915Z AUTO 15007KT 10SM SCT027 BKN070 OVC100 28/22 A2990 RMK AO2 T02870226
KBYY 221855Z AUTO 14007KT 10SM SCT022 BKN035 BKN055 28/22 A2991 RMK AO2 T02830224
KBYY 221835Z AUTO 14010KT 10SM SCT055 BKN090 28/22 A2992 RMK AO2 T02780226
KBYY 221815Z AUTO 13007KT 10SM SCT055 BKN080 27/22 A2993 RMK AO2 T02710226
KBYY 221755Z AUTO 13010KT 10SM SCT011 BKN060 OVC080 27/22 A2993 RMK AO2 T02690229
KBYY 221735Z AUTO 16009G15KT 10SM BKN011 OVC080 26/23 A2995 RMK AO2 T02670236
KBYY 221715Z AUTO 14008KT 10SM SCT011 BKN080 26/23 A2994 RMK AO2 T02580234
KBYY 221655Z AUTO 16010G14KT 10SM SCT080 25/23 A2994 RMK AO2 T02510232
KBYY 221635Z AUTO 14005KT 10SM CLR 24/23 A2994 RMK AO2 T02430229
KBYY 221615Z AUTO 15005KT 10SM SCT025 SCT035 SCT090 23/22 A2995 RMK AO2 T02400226
KBYY 221555Z AUTO 16009KT 5SM -RA SCT025 SCT060 BKN085 23/22 A2994 RMK AO2 P0001 T02410222
KBYY 221535Z AUTO 14005KT 10SM SCT095 SCT120 24/22 A2995 RMK AO2 T02400224
KBYY 221515Z AUTO 14004KT 10SM SCT010 BKN120 23/22 A2996 RMK AO2 T02320226
KBYY 221455Z AUTO 12007KT 10SM -RA SCT010 BKN013 OVC110 23/22 A2998 RMK AO2 P0080 T02310226
KBYY 221435Z AUTO 10007KT 5SM -RA BKN009 BKN023 OVC110 22/22 A2996 RMK AO2 P0079 T02300226
KBYY 221415Z AUTO 13003KT 1/4SM +RA OVC007 23/22 A2999 RMK AO2 P0064 T02330228
KBYY 221355Z AUTO 36004KT 3SM RA BKN007 BKN045 OVC080 23/22 A2998 RMK AO2 P0010 T02350231
KBYY 221335Z AUTO 09005KT 7SM -RA SCT027 BKN045 OVC080 23/23 A2996 RMK AO2 P0003 T02350230
KBYY 221315Z AUTO 11007KT 10SM -RA BKN028 BKN040 OVC100 23/22 A2996 RMK AO2 P0001 T02330229
KBYY 221255Z AUTO 12007KT 7SM RA SCT025 BKN085 OVC110 23/22 A2996 RMK AO2 P0010 T02300226
KBYY 221235Z AUTO 11007KT 10SM -RA SCT009 BKN046 OVC110 22/22 A2995 RMK AO2 P0009 T02310227
KBYY 221215Z AUTO 12009KT 5SM RA SCT009 BKN055 OVC100 23/22 A2995 RMK AO2 P0005 T02330229
KBYY 221155Z AUTO 10012G15KT 5SM RA SCT009 BKN070 OVC090 23/22 A2994 RMK AO2 P0018 T02330229
KBYY 221135Z AUTO 12010KT 7SM RA SCT009 BKN042 OVC080 23/22 A2995 RMK AO2 P0006 T02340230
KBYY 221115Z AUTO 11008KT 10SM RA SCT007 BKN080 OVC100 23/22 A2994 RMK AO2 P0001 T02350231
KBYY 221055Z AUTO 10004KT 7SM RA SCT009 BKN060 OVC080 23/23 A2993 RMK AO2 P0038 T02350230
KBYY 221035Z AUTO 10010KT 5SM RA SCT012 BKN055 OVC070 23/22 A2993 RMK AO2 P0030 T02330228
KBYY 221015Z AUTO 07008KT 2 1/2SM RA SCT009 BKN024 OVC041 22/22 A2994 RMK AO2 P0020 T02290222
KBYY 220955Z AUTO 08003KT 4SM +RA BKN008 OVC015 22/22 A2996 RMK AO2 P0017 T02300222
KBYY 220935Z AUTO 09007G14KT 7SM -RA BKN008 BKN016 OVC028 23/22 A2994 RMK AO2 P0004 T02350228
KBYY 220915Z AUTO 09011G15KT 10SM BKN008 OVC013 23/23 A2993 RMK AO2 T02400235
KBYY 220855Z AUTO 07006KT 7SM BKN006 OVC022 23/23 A2994 RMK AO2 T02400235
KBYY 220835Z AUTO 07004KT 7SM OVC006 23/23 A2994 RMK AO2 T02400234
KBYY 220815Z AUTO 10006KT 10SM OVC006 23/23 A2996 RMK AO2 T02400232
KBYY 220755Z AUTO 08007KT 10SM BKN008 OVC012 23/23 A2995 RMK AO2 T02400232
KBYY 220735Z AUTO 08009KT 10SM BKN010 OVC014 23/23 A2997 RMK AO2 T02410233
KBYY 220715Z AUTO 07008KT 7SM -RA BKN008 OVC012 24/23 A2997 RMK AO2 T02420233
KBYY 220655Z AUTO 06007KT 10SM OVC008 24/23 A2998 RMK AO2 T02430234
KBYY 220635Z AUTO 05006KT 10SM OVC008 24/23 A2998 RMK AO2 T02440233
KBYY 220615Z AUTO 05006KT 10SM OVC008 24/23 A2999 RMK AO2 T02450233
KBYY 220555Z AUTO 05007KT 10SM -RA OVC008 24/23 A2998 RMK AO2 T02450232
KBYY 220535Z AUTO 04006KT 10SM OVC008 24/23 A2999 RMK AO2 T02450232
KBYY 220515Z AUTO 03005KT 10SM BKN010 OVC016 24/23 A3000 RMK AO2 T02450232
KBYY 220455Z AUTO 06006KT 10SM BKN012 OVC017 24/23 A2999 RMK AO2 T02450230
KBYY 220435Z AUTO 05008KT 10SM OVC012 24/22 A3001 RMK AO2 T02450230
KBYY 220415Z AUTO 04004KT 10SM OVC009 24/22 A3002 RMK AO2 T02450230
KBYY 220355Z AUTO 04007KT 10SM OVC009 24/22 A2999 RMK AO2 T02450230
KBYY 220335Z AUTO 06005KT 10SM OVC009 24/22 A3001 RMK AO2 T02470231
KBYY 220315Z AUTO 07006KT 10SM OVC009 25/22 A3000 RMK AO2 T02490231
KBYY 220255Z AUTO 05006KT 10SM OVC009 25/23 A3000 RMK AO2 T02550237
KBYY 220235Z AUTO 06009KT 10SM BKN013 BKN025 26/23 A2997 RMK AO2 T02580240
KBYY 220215Z AUTO 05006KT 10SM -DZ BKN015 BKN028 BKN038 26/23 A2995 RMK AO2 T02610239
KBYY 220155Z AUTO 04005KT 10SM BKN028 BKN039 BKN085 26/23 A2996 RMK AO2 T02640240
KBYY 220135Z AUTO 36003KT 10SM SCT028 BKN039 OVC048 26/23 A2999 RMK AO2 T02680240
KBYY 220115Z AUTO 00000KT 10SM SCT042 BKN050 BKN080 27/23 A2999 RMK AO2 T02700240
KBYY 220055Z AUTO 09003KT 10SM SCT049 27/23 A2998 RMK AO2 T02720240
KBYY 220035Z AUTO 07004KT 10SM SCT021 BKN038 OVC049 27/23 A2996 RMK AO2 T02740239
KBYY 220015Z AUTO 08003KT 10SM SCT018 BKN038 27/23 A2997 RMK AO2 T02750238
KBYY 212355Z AUTO 08005KT 10SM CLR 27/23 A2997 RMK AO2 T02770237
KBYY 212335Z AUTO 07004KT 10SM CLR 27/23 A2995 RMK AO2 T02760237
KBYY 212315Z AUTO 07005KT 10SM CLR 27/23 A2995 RMK AO2 T02730237
KBYY 212255Z AUTO 11004KT 10SM SCT034 SCT042 SCT049 27/23 A2995 RMK AO2 T02710237
KBYY 212235Z AUTO 13003KT 10SM -RA SCT037 SCT049 SCT070 27/23 A2995 RMK AO2 T02690235
KBYY 212215Z AUTO 00000KT 10SM -RA SCT120 26/23 A2996 RMK AO2 T02690231
KBYY 212155Z AUTO 06005KT 10SM CLR 27/22 A2995 RMK AO2 T02700228
KBYY 212135Z AUTO 08004KT 10SM CLR 27/22 A2995 RMK AO2 T02740224
KBYY 212115Z AUTO 00000KT 10SM CLR 27/22 A2996 RMK AO2 T02790221
KBYY 212055Z AUTO 00000KT 10SM CLR 27/22 A2998 RMK AO2 T02800221
KBYY 212035Z AUTO 15003KT 10SM CLR 27/21 A2995 RMK AO2 T02800214
KBYY 212015Z AUTO 12008KT 10SM SCT110 28/20 A2993 RMK AO2 T02820204
KBYY 211955Z AUTO 13003KT 10SM BKN110 28/20 A2997 RMK AO2 T02860206
KBYY 211935Z AUTO 11006KT 10SM SCT110 28/20 A2996 RMK AO2 T02930206
KBYY 211915Z AUTO 12003KT 10SM SCT120 29/20 A2995 RMK AO2 T02990208
KBYY 211855Z AUTO 13004KT 10SM BKN110 29/20 A2997 RMK AO2 T02910207
KBYY 211835Z AUTO 15007KT 10SM OVC110 29/21 A2999 RMK AO2 T02900209
KBYY 211815Z AUTO 13012G18KT 10SM BKN120 29/21 A3000 RMK AO2 T02960219
KBYY 211755Z AUTO 14011G16KT 10SM SCT110 30/22 A2999 RMK AO2 T03010223
KBYY 211735Z AUTO 14011KT 10SM SCT022 SCT065 30/22 A3001 RMK AO2 T02990228
KBYY 211715Z AUTO 15009G15KT 10SM SCT020 SCT028 BKN100 30/23 A3001 RMK AO2 T03000233


Page loaded:  04:56 UTC  |   09:56 PM Pacific  |   10:56 PM Mountain  |   11:56 PM Central  |   12:56 AM Eastern

 

ADVISORIES

FORECASTS

FORECASTS

OBSERVATIONS

USER TOOLS

ABOUT US